This is the latest recevied weather packets stored in our database for station/object BMCB-5. If no packets are shown the sender has not sent any weather packets the latest 10 day(s).
| Time | Temp. | Humidity | Pressure | Rain* | Wind** | Luminosity | Snow |
|---|---|---|---|---|---|---|---|
| 1777287659 | 17.78° C | 44% | 1025.9 hPa | 0 mm | - | 380 W/m² | - |
| 1777285859 | 17.22° C | 43% | 1026.3 hPa | 0 mm | - | 352 W/m² | - |
| 1777285261 | 16.67° C | 46% | 1026.4 hPa | 0 mm | - | 354 W/m² | - |
| 1777283459 | 15.56° C | 47% | 1026.5 hPa | 0 mm | - | 410 W/m² | - |
| 1777264860 | 5° C | 87% | 1026.6 hPa | 0 mm | - | 4 W/m² | - |
| 1777257062 | 4.44° C | 87% | 1026.4 hPa | 0 mm | - | 0 W/m² | - |
| 1777255860 | 5° C | 87% | 1026.4 hPa | 0 mm | - | 0 W/m² | - |
| 1777255258 | 5° C | 89% | 1026.5 hPa | 0 mm | - | 0 W/m² | - |
| 1777246866 | 7.22° C | 83% | 1027.2 hPa | 0 mm | - | 0 W/m² | - |
| 1777243865 | 8.33° C | 80% | 1027.1 hPa | 0 mm | - | 0 W/m² | - |
| 1777239676 | 10° C | 72% | 1026.8 hPa | 0 mm | - | 0 W/m² | - |
| 1777238468 | 10° C | 72% | 1026.9 hPa | 0 mm | - | 0 W/m² | - |
| 1777234875 | 11.11° C | 68% | 1026.8 hPa | 0 mm | - | 0 W/m² | - |
| 1777234282 | 11.67° C | 65% | 1026.8 hPa | 0 mm | - | 0 W/m² | - |
| 1777233672 | 12.78° C | 62% | 1026.7 hPa | 0 mm | - | 0 W/m² | - |
| 1777210262 | 17.22° C | 51% | 1027.1 hPa | 0 mm | - | 402 W/m² | - |
| 1777206662 | 16.11° C | 56% | 1027.6 hPa | 0 mm | - | 360 W/m² | - |
| 1777206063 | 16.11° C | 55% | 1027.6 hPa | 0 mm | - | 332 W/m² | - |
| 1777201864 | 15° C | 63% | 1028.2 hPa | 0 mm | - | 388 W/m² | - |
| 1777198863 | 15° C | 61% | 1028.3 hPa | 0 mm | - | 332 W/m² | - |
| 1777194664 | 13.33° C | 70% | 1028.3 hPa | 0 mm | - | 304 W/m² | - |
| 1777194061 | 12.78° C | 72% | 1028.3 hPa | 0 mm | - | 414 W/m² | - |
| 1777180262 | 3.33° C | 93% | 1027.5 hPa | 0 mm | - | 12 W/m² | - |
| 1777170060 | 3.33° C | 82% | 1026.4 hPa | 0 mm | - | 0 W/m² | - |
| 1777168263 | 3.89° C | 80% | 1026.3 hPa | 0 mm | - | 0 W/m² | - |
* Rain latest hour (hover to see other rain measurements)
** Current wind speed in m/s (hover to see current wind gust speed)